sensor_id;sensor_type;location;lat;lon;timestamp;pressure;altitude;pressure_sealevel;temperature;humidity
64460;BME280;50828;53.756;21.140;2023-07-20T00:01:30;99191.55;;;13.95;65.83
64460;BME280;50828;53.756;21.140;2023-07-20T00:06:36;99185.75;;;13.92;66.29
64460;BME280;50828;53.756;21.140;2023-07-20T00:11:49;99178.45;;;13.89;66.28
64460;BME280;50828;53.756;21.140;2023-07-20T00:16:56;99172.86;;;13.89;66.32
64460;BME280;50828;53.756;21.140;2023-07-20T00:22:03;99173.65;;;13.88;66.71
64460;BME280;50828;53.756;21.140;2023-07-20T00:27:10;99175.70;;;13.86;66.97
64460;BME280;50828;53.756;21.140;2023-07-20T00:32:15;99175.04;;;13.86;66.74
64460;BME280;50828;53.756;21.140;2023-07-20T00:37:21;99176.81;;;13.86;66.88
64460;BME280;50828;53.756;21.140;2023-07-20T00:42:28;99173.68;;;13.85;66.82
64460;BME280;50828;53.756;21.140;2023-07-20T00:47:33;99179.06;;;13.84;66.99
64460;BME280;50828;53.756;21.140;2023-07-20T00:52:39;99177.73;;;13.83;66.99
64460;BME280;50828;53.756;21.140;2023-07-20T00:57:46;99181.35;;;13.81;66.82
64460;BME280;50828;53.756;21.140;2023-07-20T01:02:53;99182.09;;;13.81;66.79
64460;BME280;50828;53.756;21.140;2023-07-20T01:08:00;99166.41;;;13.80;66.87
64460;BME280;50828;53.756;21.140;2023-07-20T01:13:09;99163.33;;;13.78;66.97
64460;BME280;50828;53.756;21.140;2023-07-20T01:18:16;99168.36;;;13.77;67.17
64460;BME280;50828;53.756;21.140;2023-07-20T01:23:31;99175.16;;;13.76;67.36
64460;BME280;50828;53.756;21.140;2023-07-20T01:28:57;99181.46;;;13.74;67.01
64460;BME280;50828;53.756;21.140;2023-07-20T01:34:08;99180.15;;;13.73;67.10
64460;BME280;50828;53.756;21.140;2023-07-20T01:39:17;99184.36;;;13.70;66.94
64460;BME280;50828;53.756;21.140;2023-07-20T01:44:24;99181.86;;;13.69;66.88
64460;BME280;50828;53.756;21.140;2023-07-20T01:49:30;99182.52;;;13.67;67.07
64460;BME280;50828;53.756;21.140;2023-07-20T01:54:36;99179.48;;;13.64;67.04
64460;BME280;50828;53.756;21.140;2023-07-20T01:59:42;99171.39;;;13.61;66.91
64460;BME280;50828;53.756;21.140;2023-07-20T02:04:48;99169.86;;;13.57;66.92
64460;BME280;50828;53.756;21.140;2023-07-20T02:09:53;99173.69;;;13.53;67.11
64460;BME280;50828;53.756;21.140;2023-07-20T02:15:00;99185.09;;;13.50;66.76
64460;BME280;50828;53.756;21.140;2023-07-20T02:20:07;99195.43;;;13.46;66.85
64460;BME280;50828;53.756;21.140;2023-07-20T02:25:14;99192.30;;;13.42;66.42
64460;BME280;50828;53.756;21.140;2023-07-20T02:30:20;99189.77;;;13.37;66.40
64460;BME280;50828;53.756;21.140;2023-07-20T02:35:26;99183.06;;;13.32;66.30
64460;BME280;50828;53.756;21.140;2023-07-20T02:45:41;99172.10;;;13.21;66.83
64460;BME280;50828;53.756;21.140;2023-07-20T02:50:48;99179.16;;;13.15;66.83
64460;BME280;50828;53.756;21.140;2023-07-20T02:55:54;99186.56;;;13.13;66.77
64460;BME280;50828;53.756;21.140;2023-07-20T03:01:00;99183.43;;;13.10;66.90
64460;BME280;50828;53.756;21.140;2023-07-20T03:06:06;99175.99;;;13.07;66.97
64460;BME280;50828;53.756;21.140;2023-07-20T03:11:13;99171.00;;;13.05;67.54
64460;BME280;50828;53.756;21.140;2023-07-20T03:16:19;99169.71;;;13.06;67.60
64460;BME280;50828;53.756;21.140;2023-07-20T03:21:26;99176.16;;;13.07;67.57
64460;BME280;50828;53.756;21.140;2023-07-20T03:26:32;99186.56;;;13.10;67.88
64460;BME280;50828;53.756;21.140;2023-07-20T03:31:39;99184.05;;;13.14;67.96
64460;BME280;50828;53.756;21.140;2023-07-20T03:36:46;99182.59;;;13.17;68.25
64460;BME280;50828;53.756;21.140;2023-07-20T03:41:52;99186.01;;;13.21;68.22
64460;BME280;50828;53.756;21.140;2023-07-20T03:46:58;99183.00;;;13.25;68.25
64460;BME280;50828;53.756;21.140;2023-07-20T03:52:05;99180.27;;;13.28;68.65
64460;BME280;50828;53.756;21.140;2023-07-20T03:57:11;99185.24;;;13.31;68.33
64460;BME280;50828;53.756;21.140;2023-07-20T04:02:16;99181.80;;;13.35;68.63
64460;BME280;50828;53.756;21.140;2023-07-20T04:07:22;99178.23;;;13.38;68.68
64460;BME280;50828;53.756;21.140;2023-07-20T04:12:28;99179.41;;;13.45;68.58
64460;BME280;50828;53.756;21.140;2023-07-20T04:17:35;99184.37;;;13.52;68.70
64460;BME280;50828;53.756;21.140;2023-07-20T04:22:41;99181.77;;;13.59;68.83
64460;BME280;50828;53.756;21.140;2023-07-20T04:27:50;99186.77;;;13.69;68.89
64460;BME280;50828;53.756;21.140;2023-07-20T04:32:58;99188.02;;;13.79;69.07
64460;BME280;50828;53.756;21.140;2023-07-20T04:38:03;99195.37;;;13.88;68.71
64460;BME280;50828;53.756;21.140;2023-07-20T04:43:10;99200.29;;;13.94;69.05
64460;BME280;50828;53.756;21.140;2023-07-20T04:48:16;99200.66;;;14.02;68.88
64460;BME280;50828;53.756;21.140;2023-07-20T04:53:26;99192.31;;;14.09;69.18
64460;BME280;50828;53.756;21.140;2023-07-20T04:58:33;99189.58;;;14.19;69.22
64460;BME280;50828;53.756;21.140;2023-07-20T05:03:39;99190.92;;;14.27;69.12
64460;BME280;50828;53.756;21.140;2023-07-20T05:08:46;99189.23;;;14.36;69.13
64460;BME280;50828;53.756;21.140;2023-07-20T05:13:53;99190.67;;;14.46;69.14
64460;BME280;50828;53.756;21.140;2023-07-20T05:18:59;99194.42;;;14.56;69.38
64460;BME280;50828;53.756;21.140;2023-07-20T05:24:06;99187.83;;;14.69;69.33
64460;BME280;50828;53.756;21.140;2023-07-20T05:29:13;99186.86;;;14.80;69.09
64460;BME280;50828;53.756;21.140;2023-07-20T05:34:19;99189.20;;;14.92;69.34
64460;BME280;50828;53.756;21.140;2023-07-20T05:39:24;99195.69;;;15.05;69.09
64460;BME280;50828;53.756;21.140;2023-07-20T05:44:31;99199.65;;;15.16;69.32
64460;BME280;50828;53.756;21.140;2023-07-20T05:49:37;99192.23;;;15.25;69.32
64460;BME280;50828;53.756;21.140;2023-07-20T05:54:43;99190.80;;;15.33;69.03
64460;BME280;50828;53.756;21.140;2023-07-20T05:59:49;99192.84;;;15.41;69.01
64460;BME280;50828;53.756;21.140;2023-07-20T06:04:55;99191.16;;;15.49;69.15
64460;BME280;50828;53.756;21.140;2023-07-20T06:10:01;99190.31;;;15.56;68.94
64460;BME280;50828;53.756;21.140;2023-07-20T06:15:23;99187.59;;;15.64;69.06
64460;BME280;50828;53.756;21.140;2023-07-20T06:20:30;99174.00;;;15.72;69.04
64460;BME280;50828;53.756;21.140;2023-07-20T06:25:39;99179.05;;;15.81;68.97
64460;BME280;50828;53.756;21.140;2023-07-20T06:30:46;99184.55;;;15.88;68.95
64460;BME280;50828;53.756;21.140;2023-07-20T06:35:52;99192.64;;;15.96;68.81
64460;BME280;50828;53.756;21.140;2023-07-20T06:40:58;99189.89;;;16.02;68.86
64460;BME280;50828;53.756;21.140;2023-07-20T06:46:07;99193.98;;;16.09;68.64
64460;BME280;50828;53.756;21.140;2023-07-20T06:51:12;99194.77;;;16.14;68.61
64460;BME280;50828;53.756;21.140;2023-07-20T06:56:18;99195.19;;;16.20;68.29
64460;BME280;50828;53.756;21.140;2023-07-20T07:01:29;99195.74;;;16.27;68.05
64460;BME280;50828;53.756;21.140;2023-07-20T07:06:36;99190.85;;;16.35;68.17
64460;BME280;50828;53.756;21.140;2023-07-20T07:11:41;99191.80;;;16.41;67.75
64460;BME280;50828;53.756;21.140;2023-07-20T07:16:47;99192.66;;;16.48;67.66
64460;BME280;50828;53.756;21.140;2023-07-20T07:21:54;99199.49;;;16.54;67.30
64460;BME280;50828;53.756;21.140;2023-07-20T07:27:04;99188.21;;;16.59;67.07
64460;BME280;50828;53.756;21.140;2023-07-20T07:32:10;99187.34;;;16.68;66.94
64460;BME280;50828;53.756;21.140;2023-07-20T07:37:15;99193.56;;;16.79;66.54
64460;BME280;50828;53.756;21.140;2023-07-20T07:42:23;99190.27;;;16.92;65.90
64460;BME280;50828;53.756;21.140;2023-07-20T07:47:29;99192.63;;;17.06;65.33
64460;BME280;50828;53.756;21.140;2023-07-20T07:52:35;99196.48;;;17.22;64.40
64460;BME280;50828;53.756;21.140;2023-07-20T07:57:42;99194.27;;;17.41;63.80
64460;BME280;50828;53.756;21.140;2023-07-20T08:02:51;99195.58;;;17.59;62.81
64460;BME280;50828;53.756;21.140;2023-07-20T08:07:57;99196.21;;;17.71;61.96
64460;BME280;50828;53.756;21.140;2023-07-20T08:13:03;99193.02;;;17.84;61.86
64460;BME280;50828;53.756;21.140;2023-07-20T08:18:10;99194.71;;;18.03;61.50
64460;BME280;50828;53.756;21.140;2023-07-20T08:23:17;99197.02;;;18.18;60.09
64460;BME280;50828;53.756;21.140;2023-07-20T08:28:24;99191.72;;;18.30;59.37
64460;BME280;50828;53.756;21.140;2023-07-20T08:33:30;99193.73;;;18.40;58.52
64460;BME280;50828;53.756;21.140;2023-07-20T08:38:37;99188.82;;;18.57;59.23
64460;BME280;50828;53.756;21.140;2023-07-20T08:43:42;99194.30;;;18.82;57.84
64460;BME280;50828;53.756;21.140;2023-07-20T08:48:49;99192.18;;;18.96;56.77
64460;BME280;50828;53.756;21.140;2023-07-20T08:53:58;99184.38;;;19.06;56.60
64460;BME280;50828;53.756;21.140;2023-07-20T08:59:04;99186.06;;;19.15;55.80
64460;BME280;50828;53.756;21.140;2023-07-20T09:04:10;99189.82;;;19.20;54.99
64460;BME280;50828;53.756;21.140;2023-07-20T09:09:16;99190.52;;;19.24;54.20
64460;BME280;50828;53.756;21.140;2023-07-20T09:14:22;99192.90;;;19.25;52.92
64460;BME280;50828;53.756;21.140;2023-07-20T09:19:29;99190.91;;;19.26;53.00
64460;BME280;50828;53.756;21.140;2023-07-20T09:24:34;99195.69;;;19.29;52.95
64460;BME280;50828;53.756;21.140;2023-07-20T09:29:48;99187.88;;;19.28;52.21
64460;BME280;50828;53.756;21.140;2023-07-20T09:34:54;99195.79;;;19.35;52.16
64460;BME280;50828;53.756;21.140;2023-07-20T09:40:00;99192.95;;;19.45;52.22
64460;BME280;50828;53.756;21.140;2023-07-20T09:45:09;99195.17;;;19.55;52.15
64460;BME280;50828;53.756;21.140;2023-07-20T09:50:15;99184.27;;;19.71;52.29
64460;BME280;50828;53.756;21.140;2023-07-20T09:55:25;99189.41;;;19.87;52.05
64460;BME280;50828;53.756;21.140;2023-07-20T10:00:31;99179.90;;;20.03;51.89
64460;BME280;50828;53.756;21.140;2023-07-20T10:05:39;99175.42;;;20.18;51.64
64460;BME280;50828;53.756;21.140;2023-07-20T10:10:45;99174.89;;;20.33;51.25
64460;BME280;50828;53.756;21.140;2023-07-20T10:15:53;99172.90;;;20.45;50.73
64460;BME280;50828;53.756;21.140;2023-07-20T10:21:00;99170.94;;;20.54;50.17
64460;BME280;50828;53.756;21.140;2023-07-20T10:26:09;99170.94;;;20.60;49.72
64460;BME280;50828;53.756;21.140;2023-07-20T10:31:15;99166.55;;;20.66;49.65
64460;BME280;50828;53.756;21.140;2023-07-20T10:36:25;99161.96;;;20.75;49.31
64460;BME280;50828;53.756;21.140;2023-07-20T10:41:35;99160.58;;;20.84;49.29
64460;BME280;50828;53.756;21.140;2023-07-20T10:46:44;99153.55;;;20.91;48.96
64460;BME280;50828;53.756;21.140;2023-07-20T10:51:57;99154.56;;;21.01;49.12
64460;BME280;50828;53.756;21.140;2023-07-20T11:02:25;99155.59;;;21.16;48.51
64460;BME280;50828;53.756;21.140;2023-07-20T11:07:40;99156.39;;;21.17;48.14
64460;BME280;50828;53.756;21.140;2023-07-20T11:12:56;99156.41;;;21.15;48.26
64460;BME280;50828;53.756;21.140;2023-07-20T11:18:20;99155.05;;;21.13;48.43
64460;BME280;50828;53.756;21.140;2023-07-20T11:23:25;99161.07;;;21.08;48.65
64460;BME280;50828;53.756;21.140;2023-07-20T11:28:31;99168.22;;;21.01;49.78
64460;BME280;50828;53.756;21.140;2023-07-20T11:33:37;99160.43;;;20.89;51.03
64460;BME280;50828;53.756;21.140;2023-07-20T11:38:42;99155.13;;;20.75;52.05
64460;BME280;50828;53.756;21.140;2023-07-20T11:43:48;99152.26;;;20.66;53.13
64460;BME280;50828;53.756;21.140;2023-07-20T11:48:57;99152.01;;;20.56;52.81
64460;BME280;50828;53.756;21.140;2023-07-20T11:54:02;99148.21;;;20.47;53.12
64460;BME280;50828;53.756;21.140;2023-07-20T11:59:08;99141.02;;;20.42;53.32
64460;BME280;50828;53.756;21.140;2023-07-20T12:04:14;99139.41;;;20.44;52.97
64460;BME280;50828;53.756;21.140;2023-07-20T12:09:19;99132.81;;;20.49;52.65
64460;BME280;50828;53.756;21.140;2023-07-20T12:14:25;99132.46;;;20.56;51.81
64460;BME280;50828;53.756;21.140;2023-07-20T12:19:31;99173.35;;;20.59;50.83
64460;BME280;50828;53.756;21.140;2023-07-20T12:24:38;99194.86;;;20.51;51.23
64460;BME280;50828;53.756;21.140;2023-07-20T12:29:44;99185.67;;;20.35;52.50
64460;BME280;50828;53.756;21.140;2023-07-20T12:34:50;99181.30;;;20.09;53.37
64460;BME280;50828;53.756;21.140;2023-07-20T12:39:55;99186.94;;;19.79;54.65
64460;BME280;50828;53.756;21.140;2023-07-20T12:45:02;99175.95;;;19.49;55.97
64460;BME280;50828;53.756;21.140;2023-07-20T12:50:08;99177.30;;;19.25;56.93
64460;BME280;50828;53.756;21.140;2023-07-20T12:55:14;99168.08;;;18.96;57.93
64460;BME280;50828;53.756;21.140;2023-07-20T13:00:20;99176.42;;;18.80;58.56
64460;BME280;50828;53.756;21.140;2023-07-20T13:05:26;99170.06;;;18.64;59.30
64460;BME280;50828;53.756;21.140;2023-07-20T13:10:34;99164.91;;;18.47;60.06
64460;BME280;50828;53.756;21.140;2023-07-20T13:15:44;99169.88;;;18.33;60.70
64460;BME280;50828;53.756;21.140;2023-07-20T13:20:50;99169.36;;;18.23;61.29
64460;BME280;50828;53.756;21.140;2023-07-20T13:25:56;99162.22;;;18.17;61.78
64460;BME280;50828;53.756;21.140;2023-07-20T13:31:02;99157.02;;;18.13;62.40
64460;BME280;50828;53.756;21.140;2023-07-20T13:36:09;99144.17;;;18.13;62.51
64460;BME280;50828;53.756;21.140;2023-07-20T13:41:15;99139.39;;;18.13;62.81
64460;BME280;50828;53.756;21.140;2023-07-20T13:46:22;99139.73;;;18.13;63.19
64460;BME280;50828;53.756;21.140;2023-07-20T13:51:31;99139.89;;;18.13;63.13
64460;BME280;50828;53.756;21.140;2023-07-20T13:56:38;99137.17;;;18.14;63.17
64460;BME280;50828;53.756;21.140;2023-07-20T14:01:46;99137.53;;;18.16;63.28
64460;BME280;50828;53.756;21.140;2023-07-20T14:06:52;99138.23;;;18.16;63.46
64460;BME280;50828;53.756;21.140;2023-07-20T14:11:59;99141.75;;;18.16;63.63
64460;BME280;50828;53.756;21.140;2023-07-20T14:17:07;99142.88;;;18.16;63.73
64460;BME280;50828;53.756;21.140;2023-07-20T14:22:13;99168.19;;;18.15;63.71
64460;BME280;50828;53.756;21.140;2023-07-20T14:27:19;99221.86;;;18.13;62.90
64460;BME280;50828;53.756;21.140;2023-07-20T14:32:26;99222.44;;;18.04;61.49
64460;BME280;50828;53.756;21.140;2023-07-20T14:37:33;99218.37;;;17.91;60.92
64460;BME280;50828;53.756;21.140;2023-07-20T14:42:39;99208.63;;;17.73;61.12
64460;BME280;50828;53.756;21.140;2023-07-20T14:47:45;99213.40;;;17.52;61.37
64460;BME280;50828;53.756;21.140;2023-07-20T14:52:53;99216.93;;;17.33;61.76
64460;BME280;50828;53.756;21.140;2023-07-20T14:58:00;99212.78;;;17.14;62.18
64460;BME280;50828;53.756;21.140;2023-07-20T15:03:07;99206.54;;;16.99;62.86
64460;BME280;50828;53.756;21.140;2023-07-20T15:08:13;99212.06;;;16.88;63.53
64460;BME280;50828;53.756;21.140;2023-07-20T15:13:20;99202.89;;;16.80;63.95
64460;BME280;50828;53.756;21.140;2023-07-20T15:18:26;99195.64;;;16.76;64.38
64460;BME280;50828;53.756;21.140;2023-07-20T15:23:50;99199.73;;;16.73;64.42
64460;BME280;50828;53.756;21.140;2023-07-20T15:28:55;99203.86;;;16.73;65.01
64460;BME280;50828;53.756;21.140;2023-07-20T15:34:02;99195.38;;;16.74;65.10
64460;BME280;50828;53.756;21.140;2023-07-20T15:39:09;99200.89;;;16.77;65.41
64460;BME280;50828;53.756;21.140;2023-07-20T15:44:16;99193.97;;;16.79;65.63
64460;BME280;50828;53.756;21.140;2023-07-20T15:49:22;99196.83;;;16.81;65.56
64460;BME280;50828;53.756;21.140;2023-07-20T15:54:30;99195.15;;;16.86;65.37
64460;BME280;50828;53.756;21.140;2023-07-20T15:59:37;99192.81;;;16.95;65.58
64460;BME280;50828;53.756;21.140;2023-07-20T16:04:44;99202.02;;;17.02;65.00
64460;BME280;50828;53.756;21.140;2023-07-20T16:09:58;99210.41;;;17.06;64.94
64460;BME280;50828;53.756;21.140;2023-07-20T16:15:06;99213.40;;;17.09;64.57
64460;BME280;50828;53.756;21.140;2023-07-20T16:20:13;99219.95;;;17.10;64.65
64460;BME280;50828;53.756;21.140;2023-07-20T16:25:19;99217.50;;;17.11;64.71
64460;BME280;50828;53.756;21.140;2023-07-20T16:30:29;99218.73;;;17.16;64.39
64460;BME280;50828;53.756;21.140;2023-07-20T16:35:37;99219.70;;;17.21;64.05
64460;BME280;50828;53.756;21.140;2023-07-20T16:40:47;99226.73;;;17.29;64.11
64460;BME280;50828;53.756;21.140;2023-07-20T16:46:00;99221.95;;;17.39;63.93
64460;BME280;50828;53.756;21.140;2023-07-20T16:51:26;99212.98;;;17.51;63.77
64460;BME280;50828;53.756;21.140;2023-07-20T16:56:32;99210.61;;;17.58;62.99
64460;BME280;50828;53.756;21.140;2023-07-20T17:01:39;99208.14;;;17.66;62.65
64460;BME280;50828;53.756;21.140;2023-07-20T17:06:45;99208.86;;;17.73;61.98
64460;BME280;50828;53.756;21.140;2023-07-20T17:11:52;99211.06;;;17.76;61.48
64460;BME280;50828;53.756;21.140;2023-07-20T17:16:58;99215.72;;;17.80;61.43
64460;BME280;50828;53.756;21.140;2023-07-20T17:22:03;99219.20;;;17.83;61.27
64460;BME280;50828;53.756;21.140;2023-07-20T17:27:10;99215.30;;;17.88;61.25
64460;BME280;50828;53.756;21.140;2023-07-20T17:32:19;99212.32;;;17.91;61.03
64460;BME280;50828;53.756;21.140;2023-07-20T17:37:26;99209.40;;;17.96;60.97
64460;BME280;50828;53.756;21.140;2023-07-20T17:42:54;99201.08;;;18.00;60.55
64460;BME280;50828;53.756;21.140;2023-07-20T17:48:03;99198.58;;;17.98;60.48
64460;BME280;50828;53.756;21.140;2023-07-20T17:53:10;99206.98;;;17.93;60.25
64460;BME280;50828;53.756;21.140;2023-07-20T17:58:15;99210.82;;;17.88;60.15
64460;BME280;50828;53.756;21.140;2023-07-20T18:03:21;99211.17;;;17.81;60.29
64460;BME280;50828;53.756;21.140;2023-07-20T18:08:27;99215.56;;;17.73;60.64
64460;BME280;50828;53.756;21.140;2023-07-20T18:13:34;99218.91;;;17.66;60.93
64460;BME280;50828;53.756;21.140;2023-07-20T18:18:41;99225.27;;;17.57;60.72
64460;BME280;50828;53.756;21.140;2023-07-20T18:23:47;99232.16;;;17.50;60.68
64460;BME280;50828;53.756;21.140;2023-07-20T18:28:54;99235.10;;;17.39;60.83
64460;BME280;50828;53.756;21.140;2023-07-20T18:34:01;99247.75;;;17.31;60.90
64460;BME280;50828;53.756;21.140;2023-07-20T18:39:11;99265.70;;;17.22;61.18
64460;BME280;50828;53.756;21.140;2023-07-20T18:44:18;99282.16;;;17.15;61.72
64460;BME280;50828;53.756;21.140;2023-07-20T18:49:24;99294.79;;;17.08;62.19
64460;BME280;50828;53.756;21.140;2023-07-20T18:54:31;99299.16;;;17.02;62.68
64460;BME280;50828;53.756;21.140;2023-07-20T18:59:37;99288.95;;;16.96;63.12
64460;BME280;50828;53.756;21.140;2023-07-20T19:04:45;99287.73;;;16.89;63.28
64460;BME280;50828;53.756;21.140;2023-07-20T19:09:52;99300.98;;;16.83;63.49
64460;BME280;50828;53.756;21.140;2023-07-20T19:14:58;99305.07;;;16.76;63.56
64460;BME280;50828;53.756;21.140;2023-07-20T19:20:06;99305.68;;;16.68;63.93
64460;BME280;50828;53.756;21.140;2023-07-20T19:25:12;99304.14;;;16.61;63.88
64460;BME280;50828;53.756;21.140;2023-07-20T19:30:19;99305.33;;;16.53;64.03
64460;BME280;50828;53.756;21.140;2023-07-20T19:35:26;99301.55;;;16.44;64.17
64460;BME280;50828;53.756;21.140;2023-07-20T19:40:38;99301.80;;;16.33;63.78
64460;BME280;50828;53.756;21.140;2023-07-20T19:45:44;99311.16;;;16.23;63.48
64460;BME280;50828;53.756;21.140;2023-07-20T19:50:50;99317.80;;;16.10;63.16
64460;BME280;50828;53.756;21.140;2023-07-20T19:55:58;99323.59;;;15.97;63.19
64460;BME280;50828;53.756;21.140;2023-07-20T20:01:05;99320.10;;;15.85;63.36
64460;BME280;50828;53.756;21.140;2023-07-20T20:06:15;99318.82;;;15.73;63.50
64460;BME280;50828;53.756;21.140;2023-07-20T20:11:22;99321.90;;;15.59;63.46
64460;BME280;50828;53.756;21.140;2023-07-20T20:16:29;99325.79;;;15.47;63.41
64460;BME280;50828;53.756;21.140;2023-07-20T20:21:36;99328.42;;;15.36;63.27
64460;BME280;50828;53.756;21.140;2023-07-20T20:26:43;99332.52;;;15.23;63.04
64460;BME280;50828;53.756;21.140;2023-07-20T20:31:50;99335.35;;;15.11;62.85
64460;BME280;50828;53.756;21.140;2023-07-20T20:36:56;99337.72;;;14.97;62.79
64460;BME280;50828;53.756;21.140;2023-07-20T20:42:02;99345.42;;;14.86;62.57
64460;BME280;50828;53.756;21.140;2023-07-20T20:47:08;99351.08;;;14.74;62.77
64460;BME280;50828;53.756;21.140;2023-07-20T20:52:15;99353.70;;;14.61;62.72
64460;BME280;50828;53.756;21.140;2023-07-20T20:57:22;99354.05;;;14.50;63.04
64460;BME280;50828;53.756;21.140;2023-07-20T21:02:28;99357.05;;;14.40;63.48
64460;BME280;50828;53.756;21.140;2023-07-20T21:07:35;99358.11;;;14.30;63.38
64460;BME280;50828;53.756;21.140;2023-07-20T21:12:43;99361.84;;;14.21;63.88
64460;BME280;50828;53.756;21.140;2023-07-20T21:17:48;99360.98;;;14.13;63.61
64460;BME280;50828;53.756;21.140;2023-07-20T21:22:54;99364.88;;;14.05;63.60
64460;BME280;50828;53.756;21.140;2023-07-20T21:28:00;99365.67;;;13.96;63.57
64460;BME280;50828;53.756;21.140;2023-07-20T21:33:06;99366.20;;;13.88;63.65
64460;BME280;50828;53.756;21.140;2023-07-20T21:38:12;99367.21;;;13.81;64.08
64460;BME280;50828;53.756;21.140;2023-07-20T21:43:20;99370.85;;;13.73;64.11
64460;BME280;50828;53.756;21.140;2023-07-20T21:48:26;99373.73;;;13.67;64.13
64460;BME280;50828;53.756;21.140;2023-07-20T21:53:33;99370.64;;;13.60;63.96
64460;BME280;50828;53.756;21.140;2023-07-20T21:58:40;99367.30;;;13.54;64.39
64460;BME280;50828;53.756;21.140;2023-07-20T22:03:46;99365.92;;;13.48;64.44
64460;BME280;50828;53.756;21.140;2023-07-20T22:08:53;99363.36;;;13.41;64.16
64460;BME280;50828;53.756;21.140;2023-07-20T22:13:58;99363.80;;;13.34;64.28
64460;BME280;50828;53.756;21.140;2023-07-20T22:19:05;99368.84;;;13.27;64.40
64460;BME280;50828;53.756;21.140;2023-07-20T22:24:11;99373.02;;;13.19;64.35
64460;BME280;50828;53.756;21.140;2023-07-20T22:29:18;99376.61;;;13.13;64.92
64460;BME280;50828;53.756;21.140;2023-07-20T22:34:26;99377.95;;;13.09;64.94
64460;BME280;50828;53.756;21.140;2023-07-20T22:39:34;99376.34;;;13.06;65.45
64460;BME280;50828;53.756;21.140;2023-07-20T22:44:41;99375.24;;;13.03;65.92
64460;BME280;50828;53.756;21.140;2023-07-20T22:49:48;99373.09;;;13.01;65.95
64460;BME280;50828;53.756;21.140;2023-07-20T22:54:53;99368.53;;;13.00;66.17
64460;BME280;50828;53.756;21.140;2023-07-20T22:59:59;99368.55;;;13.00;66.59
64460;BME280;50828;53.756;21.140;2023-07-20T23:05:05;99360.72;;;12.98;66.28
64460;BME280;50828;53.756;21.140;2023-07-20T23:10:12;99365.33;;;12.98;66.05
64460;BME280;50828;53.756;21.140;2023-07-20T23:15:19;99359.09;;;12.96;65.71
64460;BME280;50828;53.756;21.140;2023-07-20T23:20:25;99362.75;;;12.94;65.88
64460;BME280;50828;53.756;21.140;2023-07-20T23:25:31;99351.34;;;12.84;66.07
64460;BME280;50828;53.756;21.140;2023-07-20T23:30:38;99365.19;;;12.89;66.15
64460;BME280;50828;53.756;21.140;2023-07-20T23:35:45;99368.38;;;12.89;66.88
64460;BME280;50828;53.756;21.140;2023-07-20T23:40:52;99370.15;;;12.91;67.45
64460;BME280;50828;53.756;21.140;2023-07-20T23:46:01;99368.30;;;12.93;67.60
64460;BME280;50828;53.756;21.140;2023-07-20T23:51:09;99368.12;;;13.01;67.77
64460;BME280;50828;53.756;21.140;2023-07-20T23:56:17;99364.88;;;13.05;68.07
